gordon.dewis.ca - Random musings from Gordon

Subscribe

Yuck! or Things you see on the Franktown weather radar (and wish you hadn’t)

April 23, 2012 @ 00:11 By: gordon Category: Weather

I just took a look at the Franktown weather radar to see where the incoming weather is and saw this:

XFT radar - 20120422 2350L

Ick.

And the forecast looks equally wonderful:

TAF CYOW 230238Z 2303/2324 04010G20KT P6SM BKN040 OVC180 TEMPO 2303/2305 P6SM -RA
FM230500 04015G25KT 6SM -RA BR OVC025 TEMPO 2307/2309 3SM
-SHRASN OVC010
FM230900 04020G30KT 1/2SM
SN VV005 TEMPO 2309/2314 3SM -SNPL SCT005 OVC012
FM231400 03015G30KT 1SM -RA BR OVC004
FM232100 36007KT 2SM -SHRA BR BKN005 OVC010
RMK NXT FCST BY 230600Z=

I’m driving to a meeting early Monday morning and it looks like I could be driving in sleet or snow, possibly with pellets mixed in for good measure.

I hate this climate.

One Response to “Yuck! or Things you see on the Franktown weather radar (and wish you hadn’t)”


  1. Ravi Shanghavi says:

    erghh Ottawa weather sucks sometimes!



Leave a Reply

*